createdAt,value
2022-10-13T00:00:05.164Z,100909.25
2022-10-13T00:03:09.488Z,100909.13
2022-10-13T00:06:16.465Z,100910.84
2022-10-13T00:09:20.753Z,100917.50
2022-10-13T00:12:24.715Z,100912.97
2022-10-13T00:15:28.557Z,100905.88
2022-10-13T00:18:32.576Z,100904.66
2022-10-13T00:21:36.550Z,100905.16
2022-10-13T00:24:40.895Z,100907.31
2022-10-13T00:27:44.687Z,100902.53
2022-10-13T00:30:48.667Z,100902.81
2022-10-13T00:33:53.851Z,100899.38
2022-10-13T00:36:57.967Z,100897.88
2022-10-13T00:40:01.834Z,100900.69
2022-10-13T00:43:16.196Z,100904.34
2022-10-13T00:46:22.382Z,100903.00
2022-10-13T00:49:26.913Z,100902.88
2022-10-13T00:52:32.927Z,100904.47
2022-10-13T00:55:38.539Z,100910.03
2022-10-13T00:58:44.083Z,100907.41
2022-10-13T01:01:51.344Z,100908.88
2022-10-13T01:04:57.238Z,100904.59
2022-10-13T01:08:02.278Z,100909.41
2022-10-13T01:11:31.395Z,100906.69
2022-10-13T01:14:49.910Z,100900.38
2022-10-13T01:18:20.347Z,100903.50
2022-10-13T01:21:43.410Z,100908.72
2022-10-13T01:24:52.561Z,100901.59
2022-10-13T01:28:30.587Z,100900.78
2022-10-13T01:31:38.299Z,100898.13
2022-10-13T01:35:06.962Z,100902.00
2022-10-13T01:38:25.095Z,100907.50
2022-10-13T01:41:39.882Z,100906.31
2022-10-13T01:44:50.569Z,100902.53
2022-10-13T01:47:55.169Z,100892.00
2022-10-13T01:51:00.309Z,100891.88
2022-10-13T01:54:04.323Z,100888.97
2022-10-13T01:57:32.471Z,100876.16
2022-10-13T02:00:43.727Z,100867.50
2022-10-13T02:04:08.714Z,100870.38
2022-10-13T02:07:36.657Z,100858.59
2022-10-13T02:10:51.310Z,100851.28
2022-10-13T02:14:10.233Z,100849.84
2022-10-13T02:17:15.669Z,100850.66
2022-10-13T02:20:20.657Z,100850.50
2022-10-13T02:23:25.373Z,100840.84
2022-10-13T02:26:32.047Z,100848.47
2022-10-13T02:29:50.191Z,100842.28
2022-10-13T02:32:54.495Z,100841.88
2022-10-13T02:35:58.452Z,100847.75
2022-10-13T02:39:02.314Z,100845.06
2022-10-13T02:42:09.064Z,100837.16
2022-10-13T02:45:12.882Z,100841.28
2022-10-13T02:48:16.907Z,100848.25
2022-10-13T02:51:21.093Z,100837.97
2022-10-13T02:54:25.044Z,100829.56
2022-10-13T02:57:28.917Z,100830.50
2022-10-13T03:00:33.070Z,100839.84
2022-10-13T03:03:37.405Z,100840.94
2022-10-13T03:06:41.483Z,100836.78
2022-10-13T03:09:45.292Z,100831.88
2022-10-13T03:12:49.095Z,100839.59
2022-10-13T03:15:52.999Z,100835.13
2022-10-13T03:18:57.279Z,100846.19
2022-10-13T03:22:01.092Z,100837.28
2022-10-13T03:25:05.325Z,100830.91
2022-10-13T03:28:09.101Z,100825.06
2022-10-13T03:31:13.011Z,100819.34
2022-10-13T03:34:17.570Z,100817.06
2022-10-13T03:37:21.492Z,100821.91
2022-10-13T03:40:25.309Z,100821.22
2022-10-13T03:43:29.485Z,100812.84
2022-10-13T03:46:33.636Z,100810.47
2022-10-13T03:49:38.240Z,100818.28
2022-10-13T03:52:42.156Z,100831.75
2022-10-13T03:55:50.890Z,100824.31
2022-10-13T03:58:59.728Z,100811.09
2022-10-13T04:02:04.488Z,100816.31
2022-10-13T04:05:09.172Z,100815.53
2022-10-13T04:08:13.934Z,100815.66
2022-10-13T04:11:18.913Z,100804.03
2022-10-13T04:14:23.009Z,100799.63
2022-10-13T04:17:26.794Z,100801.34
2022-10-13T04:20:30.524Z,100794.41
2022-10-13T04:23:34.617Z,100791.06
2022-10-13T04:26:39.654Z,100788.25
2022-10-13T04:29:43.654Z,100788.94
2022-10-13T04:32:47.432Z,100785.31
2022-10-13T04:35:51.878Z,100794.91
2022-10-13T04:38:56.170Z,100797.00
2022-10-13T04:42:00.533Z,100788.81
2022-10-13T04:45:04.966Z,100793.50
2022-10-13T04:48:08.486Z,100790.69
2022-10-13T04:51:15.327Z,100783.59
2022-10-13T04:54:19.446Z,100785.06
2022-10-13T04:57:23.647Z,100780.63
2022-10-13T05:00:27.473Z,100778.75
2022-10-13T05:03:31.266Z,100781.81
2022-10-13T05:06:48.580Z,100779.13
2022-10-13T05:10:01.834Z,100777.88
2022-10-13T05:13:05.728Z,100771.88
2022-10-13T05:16:12.886Z,100771.31
2022-10-13T05:19:17.150Z,100782.41
2022-10-13T05:22:21.735Z,100791.19
2022-10-13T05:25:28.236Z,100788.47
2022-10-13T05:28:34.807Z,100788.31
2022-10-13T05:31:40.044Z,100788.03
2022-10-13T05:34:44.836Z,100800.44
2022-10-13T05:37:48.970Z,100796.81
2022-10-13T05:40:52.991Z,100789.34
2022-10-13T05:44:00.486Z,100800.94
2022-10-13T05:47:07.522Z,100810.41
2022-10-13T05:50:12.101Z,100813.19
2022-10-13T05:53:16.729Z,100811.31
2022-10-13T05:56:27.264Z,100811.66
2022-10-13T05:59:35.131Z,100811.53
2022-10-13T06:03:07.857Z,100815.72
2022-10-13T06:06:11.754Z,100815.47
2022-10-13T06:09:16.486Z,100813.13
2022-10-13T06:12:20.976Z,100813.53
2022-10-13T06:15:28.131Z,100806.59
2022-10-13T06:18:32.073Z,100799.25
2022-10-13T06:21:36.151Z,100803.06
2022-10-13T06:24:40.326Z,100802.97
2022-10-13T06:27:44.686Z,100810.19
2022-10-13T06:30:54.236Z,100818.94
2022-10-13T06:33:59.246Z,100805.31
2022-10-13T06:37:03.387Z,100803.19
2022-10-13T06:40:07.644Z,100806.59
2022-10-13T06:43:11.409Z,100799.34
2022-10-13T06:46:15.922Z,100800.94
2022-10-13T06:49:21.000Z,100801.16
2022-10-13T06:52:24.910Z,100798.94
2022-10-13T06:55:29.101Z,100795.59
2022-10-13T06:58:35.126Z,100800.66
2022-10-13T07:01:41.733Z,100796.84
2022-10-13T07:04:47.337Z,100798.91
2022-10-13T07:07:54.475Z,100792.38
2022-10-13T07:10:58.743Z,100780.34
2022-10-13T07:14:02.681Z,100779.19
2022-10-13T07:17:07.089Z,100789.38
2022-10-13T07:20:11.427Z,100789.69
2022-10-13T07:23:15.308Z,100782.44
2022-10-13T07:26:19.344Z,100771.78
2022-10-13T07:29:23.573Z,100779.59
2022-10-13T07:32:27.528Z,100779.91
2022-10-13T07:35:31.566Z,100775.78
2022-10-13T07:38:35.517Z,100777.22
2022-10-13T07:41:39.377Z,100777.06
2022-10-13T07:44:43.913Z,100774.69
2022-10-13T07:47:47.693Z,100781.53
2022-10-13T07:50:51.779Z,100774.69
2022-10-13T07:53:55.698Z,100778.78
2022-10-13T07:56:59.457Z,100771.28
2022-10-13T08:00:06.083Z,100774.25
2022-10-13T08:03:10.043Z,100777.88
2022-10-13T08:06:14.348Z,100788.22
2022-10-13T08:09:18.572Z,100766.56
2022-10-13T08:12:22.704Z,100775.31
2022-10-13T08:15:26.725Z,100761.38
2022-10-13T08:18:30.763Z,100771.19
2022-10-13T08:24:58.945Z,100757.09
2022-10-13T08:28:03.052Z,100757.31
2022-10-13T08:31:07.574Z,100743.13
2022-10-13T08:34:12.101Z,100743.13
2022-10-13T08:37:18.329Z,100738.94
2022-10-13T08:40:23.139Z,100735.50
2022-10-13T08:43:27.653Z,100735.38
2022-10-13T08:46:53.879Z,100728.41
2022-10-13T08:50:02.078Z,100729.81
2022-10-13T08:53:13.131Z,100724.03
2022-10-13T08:56:24.662Z,100719.28
2022-10-13T08:59:28.999Z,100718.34
2022-10-13T09:02:32.984Z,100720.63
2022-10-13T09:05:44.456Z,100720.16
2022-10-13T09:08:54.235Z,100724.25
2022-10-13T09:11:58.753Z,100722.63
2022-10-13T09:15:09.806Z,100724.22
2022-10-13T09:18:14.243Z,100725.38
2022-10-13T09:21:25.386Z,100721.09
2022-10-13T09:24:29.376Z,100717.47
2022-10-13T09:27:51.687Z,100716.69
2022-10-13T09:31:14.205Z,100716.69
2022-10-13T09:34:21.520Z,100718.50
2022-10-13T09:37:25.976Z,100714.19
2022-10-13T09:40:33.149Z,100713.31
2022-10-13T09:43:40.750Z,100710.19
2022-10-13T09:46:52.762Z,100701.88
2022-10-13T09:50:14.534Z,100712.19
2022-10-13T09:53:34.652Z,100706.84
2022-10-13T09:56:46.124Z,100709.94
2022-10-13T09:59:58.732Z,100707.06
2022-10-13T10:03:22.161Z,100699.31
2022-10-13T10:06:27.896Z,100702.53
2022-10-13T10:09:40.202Z,100698.34
2022-10-13T10:12:45.137Z,100696.34
2022-10-13T10:15:55.821Z,100682.47
2022-10-13T10:19:43.972Z,100690.66
2022-10-13T10:23:31.068Z,100689.47
2022-10-13T10:27:09.588Z,100685.34
2022-10-13T10:30:19.376Z,100677.53
2022-10-13T10:33:54.611Z,100677.56
2022-10-13T10:37:21.100Z,100681.75
2022-10-13T10:41:03.973Z,100666.06
2022-10-13T10:44:15.799Z,100669.03
2022-10-13T10:47:30.123Z,100668.50
2022-10-13T10:50:35.118Z,100664.34
2022-10-13T10:53:58.303Z,100664.72
2022-10-13T10:57:12.447Z,100653.88
2022-10-13T11:00:20.069Z,100648.03
2022-10-13T11:03:29.414Z,100647.81
2022-10-13T11:06:36.142Z,100638.63
2022-10-13T11:09:42.909Z,100642.44
2022-10-13T11:12:48.411Z,100640.06
2022-10-13T11:15:53.454Z,100641.28
2022-10-13T11:19:30.604Z,100637.69
2022-10-13T11:22:34.885Z,100641.72
2022-10-13T11:25:43.477Z,100637.50
2022-10-13T11:28:48.260Z,100629.00
2022-10-13T11:31:54.685Z,100631.84
2022-10-13T11:35:35.519Z,100627.72
2022-10-13T11:38:41.487Z,100619.72
2022-10-13T11:42:03.825Z,100619.75
2022-10-13T11:45:19.442Z,100622.13
2022-10-13T11:48:39.993Z,100624.34
2022-10-13T11:52:21.966Z,100626.91
2022-10-13T11:55:51.126Z,100610.50
2022-10-13T11:58:54.971Z,100623.31
2022-10-13T12:02:11.283Z,100615.03
2022-10-13T12:05:28.266Z,100610.28
2022-10-13T12:08:35.152Z,100608.09
2022-10-13T12:11:39.388Z,100600.81
2022-10-13T12:14:47.582Z,100606.31
2022-10-13T12:17:51.465Z,100587.41
2022-10-13T12:20:58.479Z,100581.31
2022-10-13T12:24:08.834Z,100569.91
2022-10-13T12:27:22.358Z,100571.88
2022-10-13T12:30:26.361Z,100568.34
2022-10-13T12:33:38.838Z,100553.94
2022-10-13T12:36:45.466Z,100555.09
2022-10-13T12:39:50.032Z,100559.88
2022-10-13T12:42:53.999Z,100558.88
2022-10-13T12:45:58.093Z,100566.53
2022-10-13T12:52:25.244Z,100543.63
2022-10-13T12:55:30.991Z,100545.38
2022-10-13T12:58:35.979Z,100542.03
2022-10-13T13:01:40.300Z,100544.44
2022-10-13T13:04:44.587Z,100533.38
2022-10-13T13:07:54.933Z,100540.25
2022-10-13T13:11:02.151Z,100531.00
2022-10-13T13:14:35.927Z,100536.34
2022-10-13T13:21:05.878Z,100533.78
2022-10-13T13:24:16.458Z,100531.63
2022-10-13T13:27:37.370Z,100522.16
2022-10-13T13:30:41.786Z,100520.22
2022-10-13T13:33:47.026Z,100524.16
2022-10-13T13:36:51.032Z,100522.59
2022-10-13T13:39:55.101Z,100516.47
2022-10-13T13:42:59.199Z,100509.97
2022-10-13T13:46:04.952Z,100521.59
2022-10-13T13:49:11.666Z,100510.34
2022-10-13T13:52:16.395Z,100516.25
2022-10-13T13:55:20.398Z,100498.31
2022-10-13T13:58:24.527Z,100503.25
2022-10-13T14:01:28.361Z,100509.75
2022-10-13T14:04:32.124Z,100506.22
2022-10-13T14:07:36.224Z,100498.53
2022-10-13T14:10:40.866Z,100493.56
2022-10-13T14:13:44.526Z,100492.00
2022-10-13T14:16:48.397Z,100491.03
2022-10-13T14:19:52.267Z,100485.69
2022-10-13T14:22:56.145Z,100484.09
2022-10-13T14:25:59.908Z,100482.53
2022-10-13T14:29:04.227Z,100480.16
2022-10-13T14:32:08.085Z,100475.44
2022-10-13T14:35:11.996Z,100488.59
2022-10-13T14:38:15.978Z,100481.72
2022-10-13T14:41:20.220Z,100487.41
2022-10-13T14:44:24.270Z,100482.09
2022-10-13T14:47:28.405Z,100481.31
2022-10-13T14:50:32.647Z,100475.41
2022-10-13T14:53:39.406Z,100484.28
2022-10-13T14:56:44.726Z,100479.13
2022-10-13T14:59:48.870Z,100481.31
2022-10-13T15:02:52.792Z,100480.69
2022-10-13T15:05:56.729Z,100485.38
2022-10-13T15:09:00.925Z,100485.22
2022-10-13T15:12:07.881Z,100489.94
2022-10-13T15:15:11.990Z,100489.91
2022-10-13T15:18:15.903Z,100484.91
2022-10-13T15:21:20.165Z,100482.94
2022-10-13T15:24:24.661Z,100478.78
2022-10-13T15:27:28.511Z,100485.44
2022-10-13T15:30:35.462Z,100479.72
2022-10-13T15:33:42.824Z,100485.22
2022-10-13T15:36:47.012Z,100480.72
2022-10-13T15:39:56.011Z,100486.63
2022-10-13T15:43:00.910Z,100481.91
2022-10-13T15:46:07.261Z,100483.47
2022-10-13T15:49:11.121Z,100489.72
2022-10-13T15:52:15.253Z,100481.47
2022-10-13T15:55:19.198Z,100471.63
2022-10-13T15:58:23.587Z,100478.69
2022-10-13T16:01:27.434Z,100477.09
2022-10-13T16:04:36.409Z,100483.81
2022-10-13T16:07:41.569Z,100484.19
2022-10-13T16:10:45.672Z,100487.13
2022-10-13T16:13:52.279Z,100494.19
2022-10-13T16:16:58.432Z,100484.91
2022-10-13T16:20:04.075Z,100481.38
2022-10-13T16:23:08.237Z,100490.03
2022-10-13T16:26:12.488Z,100491.91
2022-10-13T16:29:16.878Z,100495.97
2022-10-13T16:32:21.293Z,100498.50
2022-10-13T16:35:25.680Z,100496.31
2022-10-13T16:38:29.965Z,100500.25
2022-10-13T16:41:34.365Z,100497.69
2022-10-13T16:44:38.469Z,100503.78
2022-10-13T16:47:42.626Z,100500.59
2022-10-13T16:50:47.067Z,100499.56
2022-10-13T16:53:52.677Z,100500.13
2022-10-13T16:56:56.843Z,100503.22
2022-10-13T17:00:00.825Z,100506.75
2022-10-13T17:03:06.311Z,100505.31
2022-10-13T17:06:11.211Z,100508.41
2022-10-13T17:09:15.064Z,100512.13
2022-10-13T17:12:19.167Z,100511.31
2022-10-13T17:15:23.432Z,100506.84
2022-10-13T17:18:27.735Z,100513.16
2022-10-13T17:21:31.589Z,100510.59
2022-10-13T17:24:35.782Z,100509.66
2022-10-13T17:27:40.728Z,100515.34
2022-10-13T17:30:45.227Z,100523.00
2022-10-13T17:33:50.089Z,100514.75
2022-10-13T17:36:54.191Z,100513.94
2022-10-13T17:39:59.270Z,100525.91
2022-10-13T17:43:03.482Z,100515.69
2022-10-13T17:46:41.321Z,100514.34
2022-10-13T17:49:45.358Z,100506.84
2022-10-13T17:52:49.559Z,100508.78
2022-10-13T17:55:54.701Z,100504.22
2022-10-13T17:59:00.285Z,100489.44
2022-10-13T18:02:04.472Z,100500.38
2022-10-13T18:05:09.112Z,100492.69
2022-10-13T18:08:13.321Z,100504.09
2022-10-13T18:11:19.125Z,100485.78
2022-10-13T18:14:24.943Z,100489.69
2022-10-13T18:17:29.053Z,100491.19
2022-10-13T18:20:37.784Z,100486.97
2022-10-13T18:23:42.428Z,100483.75
2022-10-13T18:26:46.768Z,100481.13
2022-10-13T18:29:50.863Z,100500.34
2022-10-13T18:32:54.810Z,100496.19
2022-10-13T18:35:59.213Z,100499.97
2022-10-13T18:39:11.306Z,100506.31
2022-10-13T18:42:17.886Z,100503.41
2022-10-13T18:45:22.026Z,100499.31
2022-10-13T18:48:25.919Z,100506.81
2022-10-13T18:51:35.591Z,100496.75
2022-10-13T18:54:40.593Z,100488.69
2022-10-13T18:57:44.798Z,100489.66
2022-10-13T19:00:49.027Z,100492.75
2022-10-13T19:03:54.641Z,100497.22
2022-10-13T19:06:58.429Z,100503.13
2022-10-13T19:10:02.446Z,100497.22
2022-10-13T19:13:06.724Z,100497.41
2022-10-13T19:16:16.679Z,100492.69
2022-10-13T19:19:20.469Z,100496.50
2022-10-13T19:22:24.719Z,100492.41
2022-10-13T19:25:28.489Z,100497.25
2022-10-13T19:28:32.430Z,100495.22
2022-10-13T19:31:39.276Z,100494.78
2022-10-13T19:34:43.157Z,100493.22
2022-10-13T19:37:47.152Z,100493.75
2022-10-13T19:40:52.491Z,100494.31
2022-10-13T19:43:56.766Z,100485.38
2022-10-13T19:47:00.842Z,100484.94
2022-10-13T19:50:06.000Z,100478.38
2022-10-13T19:53:11.055Z,100484.00
2022-10-13T19:56:24.840Z,100480.56
2022-10-13T19:59:28.859Z,100480.28
2022-10-13T20:02:32.849Z,100481.50
2022-10-13T20:05:38.386Z,100485.13
2022-10-13T20:08:42.770Z,100475.78
2022-10-13T20:11:51.586Z,100479.81
2022-10-13T20:14:55.390Z,100472.34
2022-10-13T20:17:59.326Z,100478.56
2022-10-13T20:21:08.658Z,100479.72
2022-10-13T20:24:12.979Z,100474.44
2022-10-13T20:27:17.181Z,100471.69
2022-10-13T20:30:21.375Z,100469.53
2022-10-13T20:33:25.246Z,100473.81
2022-10-13T20:36:29.158Z,100473.81
2022-10-13T20:39:33.338Z,100464.44
2022-10-13T20:42:37.260Z,100467.94
2022-10-13T20:45:41.246Z,100469.84
2022-10-13T20:49:09.375Z,100473.41
2022-10-13T20:52:09.321Z,100468.59
2022-10-13T20:55:13.372Z,100475.47
2022-10-13T20:58:17.086Z,100471.31
2022-10-13T21:01:22.355Z,100474.88
2022-10-13T21:04:26.956Z,100475.66
2022-10-13T21:07:31.224Z,100467.72
2022-10-13T21:10:36.775Z,100469.66
2022-10-13T21:13:41.931Z,100469.66
2022-10-13T21:16:45.883Z,100468.84
2022-10-13T21:19:49.688Z,100478.59
2022-10-13T21:22:53.424Z,100476.41
2022-10-13T21:26:00.761Z,100480.53
2022-10-13T21:29:05.127Z,100472.69
2022-10-13T21:32:09.150Z,100474.66
2022-10-13T21:35:13.269Z,100471.78
2022-10-13T21:38:19.933Z,100472.94
2022-10-13T21:41:23.963Z,100474.84
2022-10-13T21:44:28.082Z,100476.03
2022-10-13T21:47:33.912Z,100466.78
2022-10-13T21:50:38.130Z,100469.31
2022-10-13T21:53:41.985Z,100476.78
2022-10-13T21:56:46.000Z,100485.72
2022-10-13T21:59:49.938Z,100481.88
2022-10-13T22:02:53.874Z,100477.56
2022-10-13T22:05:58.111Z,100476.63
2022-10-13T22:09:04.150Z,100471.38
2022-10-13T22:12:09.170Z,100478.38
2022-10-13T22:15:13.272Z,100470.56
2022-10-13T22:18:17.626Z,100463.09
2022-10-13T22:21:28.145Z,100461.78
2022-10-13T22:24:32.411Z,100457.66
2022-10-13T22:27:36.710Z,100460.75
2022-10-13T22:30:40.643Z,100454.66
2022-10-13T22:33:44.909Z,100460.75
2022-10-13T22:36:48.782Z,100456.13
2022-10-13T22:39:53.036Z,100457.38
2022-10-13T22:42:56.970Z,100449.75
2022-10-13T22:46:04.261Z,100449.09
2022-10-13T22:49:09.092Z,100449.09
2022-10-13T22:52:13.241Z,100444.97
2022-10-13T22:55:17.288Z,100441.31
2022-10-13T22:58:21.584Z,100438.59
2022-10-13T23:01:26.284Z,100436.03
2022-10-13T23:04:30.291Z,100436.81
2022-10-13T23:07:33.898Z,100429.38
2022-10-13T23:10:37.913Z,100426.19
2022-10-13T23:13:42.155Z,100433.22
2022-10-13T23:16:46.157Z,100433.22
2022-10-13T23:19:49.716Z,100430.22
2022-10-13T23:22:53.742Z,100436.69
2022-10-13T23:26:05.314Z,100425.94
2022-10-13T23:29:09.601Z,100425.31
2022-10-13T23:32:13.698Z,100425.66
2022-10-13T23:35:17.702Z,100426.25
2022-10-13T23:38:22.030Z,100428.63
2022-10-13T23:41:26.675Z,100420.22
2022-10-13T23:44:30.843Z,100420.22
2022-10-13T23:47:35.047Z,100426.88
2022-10-13T23:50:38.924Z,100420.84
2022-10-13T23:53:43.060Z,100421.41
2022-10-13T23:56:46.853Z,100415.75
2022-10-13T23:59:50.656Z,100421.78
